sensor_id;sensor_type;location;lat;lon;timestamp;temperature;humidity
21282;DHT22;10800;53.096;18.328;2022-10-16T00:03:11;14.30;99.90
21282;DHT22;10800;53.096;18.328;2022-10-16T00:08:16;14.20;99.90
21282;DHT22;10800;53.096;18.328;2022-10-16T00:13:26;14.10;99.90
21282;DHT22;10800;53.096;18.328;2022-10-16T00:18:35;14.00;99.90
21282;DHT22;10800;53.096;18.328;2022-10-16T00:23:41;13.80;99.90
21282;DHT22;10800;53.096;18.328;2022-10-16T00:28:48;13.70;99.90
21282;DHT22;10800;53.096;18.328;2022-10-16T00:33:57;13.60;99.90
21282;DHT22;10800;53.096;18.328;2022-10-16T00:39:05;13.40;99.90
21282;DHT22;10800;53.096;18.328;2022-10-16T00:49:56;13.20;99.90
21282;DHT22;10800;53.096;18.328;2022-10-16T00:55:04;13.20;99.90
21282;DHT22;10800;53.096;18.328;2022-10-16T01:00:13;13.10;99.90
21282;DHT22;10800;53.096;18.328;2022-10-16T01:05:21;13.10;99.90
21282;DHT22;10800;53.096;18.328;2022-10-16T01:10:38;13.10;99.90
21282;DHT22;10800;53.096;18.328;2022-10-16T01:15:53;13.10;99.90
21282;DHT22;10800;53.096;18.328;2022-10-16T01:21:01;13.20;99.90
21282;DHT22;10800;53.096;18.328;2022-10-16T01:31:38;13.20;99.90
21282;DHT22;10800;53.096;18.328;2022-10-16T01:36:53;13.20;99.90
21282;DHT22;10800;53.096;18.328;2022-10-16T01:42:16;13.20;99.90
21282;DHT22;10800;53.096;18.328;2022-10-16T01:47:23;13.20;99.90
21282;DHT22;10800;53.096;18.328;2022-10-16T01:52:33;13.20;99.90
21282;DHT22;10800;53.096;18.328;2022-10-16T01:57:42;13.20;99.90
21282;DHT22;10800;53.096;18.328;2022-10-16T02:02:51;13.20;99.90
21282;DHT22;10800;53.096;18.328;2022-10-16T02:08:01;13.20;99.90
21282;DHT22;10800;53.096;18.328;2022-10-16T02:13:17;13.20;99.90
21282;DHT22;10800;53.096;18.328;2022-10-16T02:18:20;13.20;99.90
21282;DHT22;10800;53.096;18.328;2022-10-16T02:28:47;13.20;99.90
21282;DHT22;10800;53.096;18.328;2022-10-16T02:33:53;13.10;99.90
21282;DHT22;10800;53.096;18.328;2022-10-16T02:39:04;13.00;99.90
21282;DHT22;10800;53.096;18.328;2022-10-16T02:44:10;12.90;99.90
21282;DHT22;10800;53.096;18.328;2022-10-16T02:49:16;12.90;99.90
21282;DHT22;10800;53.096;18.328;2022-10-16T02:54:22;12.90;99.90
21282;DHT22;10800;53.096;18.328;2022-10-16T02:59:30;12.90;99.90
21282;DHT22;10800;53.096;18.328;2022-10-16T03:04:38;12.90;99.90
21282;DHT22;10800;53.096;18.328;2022-10-16T03:09:44;13.00;99.90
21282;DHT22;10800;53.096;18.328;2022-10-16T03:14:51;13.00;99.90
21282;DHT22;10800;53.096;18.328;2022-10-16T03:19:57;13.10;99.90
21282;DHT22;10800;53.096;18.328;2022-10-16T03:25:04;13.10;99.90
21282;DHT22;10800;53.096;18.328;2022-10-16T03:30:12;13.10;99.90
21282;DHT22;10800;53.096;18.328;2022-10-16T03:35:38;13.20;99.90
21282;DHT22;10800;53.096;18.328;2022-10-16T03:40:44;13.30;99.90
21282;DHT22;10800;53.096;18.328;2022-10-16T03:45:51;13.30;99.90
21282;DHT22;10800;53.096;18.328;2022-10-16T03:50:56;13.30;99.90
21282;DHT22;10800;53.096;18.328;2022-10-16T03:56:05;13.30;99.90
21282;DHT22;10800;53.096;18.328;2022-10-16T04:01:12;13.30;99.90
21282;DHT22;10800;53.096;18.328;2022-10-16T04:06:18;13.40;99.90
21282;DHT22;10800;53.096;18.328;2022-10-16T04:11:28;13.40;99.90
21282;DHT22;10800;53.096;18.328;2022-10-16T04:16:34;13.40;99.90
21282;DHT22;10800;53.096;18.328;2022-10-16T04:21:44;13.40;99.90
21282;DHT22;10800;53.096;18.328;2022-10-16T04:26:49;13.40;99.90
21282;DHT22;10800;53.096;18.328;2022-10-16T04:31:54;13.50;99.90
21282;DHT22;10800;53.096;18.328;2022-10-16T04:37:06;13.50;99.90
21282;DHT22;10800;53.096;18.328;2022-10-16T04:42:13;13.50;99.90
21282;DHT22;10800;53.096;18.328;2022-10-16T04:47:21;13.40;99.90
21282;DHT22;10800;53.096;18.328;2022-10-16T04:52:28;13.50;99.90
21282;DHT22;10800;53.096;18.328;2022-10-16T04:57:38;13.50;99.90
21282;DHT22;10800;53.096;18.328;2022-10-16T05:03:02;13.50;99.90
21282;DHT22;10800;53.096;18.328;2022-10-16T05:08:10;13.50;99.90
21282;DHT22;10800;53.096;18.328;2022-10-16T05:13:18;13.60;99.90
21282;DHT22;10800;53.096;18.328;2022-10-16T05:18:26;13.50;99.90
21282;DHT22;10800;53.096;18.328;2022-10-16T05:23:56;13.60;99.90
21282;DHT22;10800;53.096;18.328;2022-10-16T05:29:34;13.70;99.90
21282;DHT22;10800;53.096;18.328;2022-10-16T05:35:05;13.70;99.90
21282;DHT22;10800;53.096;18.328;2022-10-16T05:40:37;13.70;99.90
21282;DHT22;10800;53.096;18.328;2022-10-16T05:45:53;13.70;99.90
21282;DHT22;10800;53.096;18.328;2022-10-16T05:51:14;13.80;99.90
21282;DHT22;10800;53.096;18.328;2022-10-16T05:56:29;13.80;99.90
21282;DHT22;10800;53.096;18.328;2022-10-16T06:01:53;13.80;99.90
21282;DHT22;10800;53.096;18.328;2022-10-16T06:07:02;13.80;99.90
21282;DHT22;10800;53.096;18.328;2022-10-16T06:12:09;13.80;99.90
21282;DHT22;10800;53.096;18.328;2022-10-16T06:17:15;13.90;99.90
21282;DHT22;10800;53.096;18.328;2022-10-16T06:22:25;14.00;99.90
21282;DHT22;10800;53.096;18.328;2022-10-16T06:27:31;14.00;99.90
21282;DHT22;10800;53.096;18.328;2022-10-16T06:32:36;14.20;99.90
21282;DHT22;10800;53.096;18.328;2022-10-16T06:37:49;14.40;99.90
21282;DHT22;10800;53.096;18.328;2022-10-16T06:42:56;14.60;99.90
21282;DHT22;10800;53.096;18.328;2022-10-16T06:48:01;14.60;99.90
21282;DHT22;10800;53.096;18.328;2022-10-16T06:53:10;14.50;99.90
21282;DHT22;10800;53.096;18.328;2022-10-16T06:58:17;14.50;99.90
21282;DHT22;10800;53.096;18.328;2022-10-16T07:03:22;14.60;99.90
21282;DHT22;10800;53.096;18.328;2022-10-16T07:08:30;14.60;99.90
21282;DHT22;10800;53.096;18.328;2022-10-16T07:13:38;14.70;99.90
21282;DHT22;10800;53.096;18.328;2022-10-16T07:19:23;14.80;99.90
21282;DHT22;10800;53.096;18.328;2022-10-16T07:25:01;15.00;99.90
21282;DHT22;10800;53.096;18.328;2022-10-16T07:30:06;15.10;99.90
21282;DHT22;10800;53.096;18.328;2022-10-16T07:35:12;15.30;99.90
21282;DHT22;10800;53.096;18.328;2022-10-16T07:40:19;15.70;99.90
21282;DHT22;10800;53.096;18.328;2022-10-16T07:45:33;16.10;99.90
21282;DHT22;10800;53.096;18.328;2022-10-16T07:50:45;16.80;99.90
21282;DHT22;10800;53.096;18.328;2022-10-16T07:55:56;17.60;99.90
21282;DHT22;10800;53.096;18.328;2022-10-16T08:01:03;17.60;99.90
21282;DHT22;10800;53.096;18.328;2022-10-16T08:06:10;17.20;99.90
21282;DHT22;10800;53.096;18.328;2022-10-16T08:11:17;17.10;99.90
21282;DHT22;10800;53.096;18.328;2022-10-16T08:16:36;17.10;99.90
21282;DHT22;10800;53.096;18.328;2022-10-16T08:21:42;17.10;99.90
21282;DHT22;10800;53.096;18.328;2022-10-16T08:26:54;17.60;99.90
21282;DHT22;10800;53.096;18.328;2022-10-16T08:32:00;17.90;99.90
21282;DHT22;10800;53.096;18.328;2022-10-16T08:37:05;18.30;99.90
21282;DHT22;10800;53.096;18.328;2022-10-16T08:52:56;18.10;99.90
21282;DHT22;10800;53.096;18.328;2022-10-16T08:58:16;18.20;99.90
21282;DHT22;10800;53.096;18.328;2022-10-16T09:03:54;18.50;99.90
21282;DHT22;10800;53.096;18.328;2022-10-16T09:09:11;18.70;99.90
21282;DHT22;10800;53.096;18.328;2022-10-16T09:19:46;18.60;99.90
21282;DHT22;10800;53.096;18.328;2022-10-16T09:24:52;18.60;99.90
21282;DHT22;10800;53.096;18.328;2022-10-16T09:29:58;18.60;99.90
21282;DHT22;10800;53.096;18.328;2022-10-16T09:35:03;18.60;99.90
21282;DHT22;10800;53.096;18.328;2022-10-16T09:40:23;18.60;99.90
21282;DHT22;10800;53.096;18.328;2022-10-16T09:45:21;18.60;99.90
21282;DHT22;10800;53.096;18.328;2022-10-16T09:50:28;18.70;99.90
21282;DHT22;10800;53.096;18.328;2022-10-16T09:55:34;18.80;99.90
21282;DHT22;10800;53.096;18.328;2022-10-16T10:00:41;18.90;99.90
21282;DHT22;10800;53.096;18.328;2022-10-16T10:05:48;18.90;99.90
21282;DHT22;10800;53.096;18.328;2022-10-16T10:10:57;19.00;99.90
21282;DHT22;10800;53.096;18.328;2022-10-16T10:16:02;18.90;99.90
21282;DHT22;10800;53.096;18.328;2022-10-16T10:21:16;19.00;99.90
21282;DHT22;10800;53.096;18.328;2022-10-16T10:26:19;19.40;99.90
21282;DHT22;10800;53.096;18.328;2022-10-16T10:31:27;19.70;99.90
21282;DHT22;10800;53.096;18.328;2022-10-16T10:36:40;19.80;99.90
21282;DHT22;10800;53.096;18.328;2022-10-16T10:52:52;19.60;99.90
21282;DHT22;10800;53.096;18.328;2022-10-16T11:09:18;20.30;99.90
21282;DHT22;10800;53.096;18.328;2022-10-16T11:20:28;20.20;99.90
21282;DHT22;10800;53.096;18.328;2022-10-16T11:25:39;19.90;99.90
21282;DHT22;10800;53.096;18.328;2022-10-16T11:31:00;19.70;99.90
21282;DHT22;10800;53.096;18.328;2022-10-16T11:47:36;19.70;99.90
21282;DHT22;10800;53.096;18.328;2022-10-16T11:58:35;19.80;99.90
21282;DHT22;10800;53.096;18.328;2022-10-16T12:04:21;19.90;99.90
21282;DHT22;10800;53.096;18.328;2022-10-16T12:09:29;19.80;99.90
21282;DHT22;10800;53.096;18.328;2022-10-16T12:14:39;19.80;99.90
21282;DHT22;10800;53.096;18.328;2022-10-16T12:19:57;19.80;99.90
21282;DHT22;10800;53.096;18.328;2022-10-16T12:25:05;19.80;99.90
21282;DHT22;10800;53.096;18.328;2022-10-16T12:30:14;19.70;99.90
21282;DHT22;10800;53.096;18.328;2022-10-16T12:35:29;19.70;99.90
21282;DHT22;10800;53.096;18.328;2022-10-16T12:40:32;19.70;99.90
21282;DHT22;10800;53.096;18.328;2022-10-16T12:45:41;19.60;99.90
21282;DHT22;10800;53.096;18.328;2022-10-16T12:50:46;19.50;99.90
21282;DHT22;10800;53.096;18.328;2022-10-16T12:56:02;19.30;99.90
21282;DHT22;10800;53.096;18.328;2022-10-16T13:01:23;19.30;99.90
21282;DHT22;10800;53.096;18.328;2022-10-16T13:06:53;19.20;99.90
21282;DHT22;10800;53.096;18.328;2022-10-16T13:17:37;19.10;99.90
21282;DHT22;10800;53.096;18.328;2022-10-16T13:22:55;19.00;99.90
21282;DHT22;10800;53.096;18.328;2022-10-16T13:28:01;19.00;99.90
21282;DHT22;10800;53.096;18.328;2022-10-16T13:33:15;19.10;99.90
21282;DHT22;10800;53.096;18.328;2022-10-16T13:38:23;19.10;99.90
21282;DHT22;10800;53.096;18.328;2022-10-16T13:43:34;19.30;99.90
21282;DHT22;10800;53.096;18.328;2022-10-16T13:48:40;19.40;99.90
21282;DHT22;10800;53.096;18.328;2022-10-16T13:53:46;19.60;99.90
21282;DHT22;10800;53.096;18.328;2022-10-16T13:59:03;19.70;99.90
21282;DHT22;10800;53.096;18.328;2022-10-16T14:04:10;19.60;99.90
21282;DHT22;10800;53.096;18.328;2022-10-16T14:09:24;19.50;99.90
21282;DHT22;10800;53.096;18.328;2022-10-16T14:14:39;19.40;99.90
21282;DHT22;10800;53.096;18.328;2022-10-16T14:19:38;19.30;99.90
21282;DHT22;10800;53.096;18.328;2022-10-16T14:24:44;19.20;99.90
21282;DHT22;10800;53.096;18.328;2022-10-16T14:29:50;19.10;99.90
21282;DHT22;10800;53.096;18.328;2022-10-16T14:34:56;19.00;99.90
21282;DHT22;10800;53.096;18.328;2022-10-16T14:40:02;18.90;99.90
21282;DHT22;10800;53.096;18.328;2022-10-16T14:45:09;18.90;99.90
21282;DHT22;10800;53.096;18.328;2022-10-16T14:50:16;19.00;99.90
21282;DHT22;10800;53.096;18.328;2022-10-16T14:55:22;18.90;99.90
21282;DHT22;10800;53.096;18.328;2022-10-16T15:00:28;18.90;99.90
21282;DHT22;10800;53.096;18.328;2022-10-16T15:05:33;18.70;99.90
21282;DHT22;10800;53.096;18.328;2022-10-16T15:10:42;18.60;99.90
21282;DHT22;10800;53.096;18.328;2022-10-16T15:15:48;18.50;99.90
21282;DHT22;10800;53.096;18.328;2022-10-16T15:20:53;18.30;99.90
21282;DHT22;10800;53.096;18.328;2022-10-16T15:26:00;18.20;99.90
21282;DHT22;10800;53.096;18.328;2022-10-16T15:31:13;18.10;99.90
21282;DHT22;10800;53.096;18.328;2022-10-16T15:36:37;17.90;99.90
21282;DHT22;10800;53.096;18.328;2022-10-16T15:41:42;17.80;99.90
21282;DHT22;10800;53.096;18.328;2022-10-16T15:46:48;17.60;99.90
21282;DHT22;10800;53.096;18.328;2022-10-16T15:51:53;17.40;99.90
21282;DHT22;10800;53.096;18.328;2022-10-16T15:56:59;17.20;99.90
21282;DHT22;10800;53.096;18.328;2022-10-16T16:02:04;17.10;99.90
21282;DHT22;10800;53.096;18.328;2022-10-16T16:07:09;16.90;99.90
21282;DHT22;10800;53.096;18.328;2022-10-16T16:12:20;16.70;99.90
21282;DHT22;10800;53.096;18.328;2022-10-16T16:17:33;16.60;99.90
21282;DHT22;10800;53.096;18.328;2022-10-16T16:22:40;16.40;99.90
21282;DHT22;10800;53.096;18.328;2022-10-16T16:27:48;16.10;99.90
21282;DHT22;10800;53.096;18.328;2022-10-16T16:32:54;16.00;99.90
21282;DHT22;10800;53.096;18.328;2022-10-16T16:38:00;15.80;99.90
21282;DHT22;10800;53.096;18.328;2022-10-16T16:43:05;15.60;99.90
21282;DHT22;10800;53.096;18.328;2022-10-16T16:48:11;15.50;99.90
21282;DHT22;10800;53.096;18.328;2022-10-16T16:53:16;15.30;99.90
21282;DHT22;10800;53.096;18.328;2022-10-16T16:58:21;15.20;99.90
21282;DHT22;10800;53.096;18.328;2022-10-16T17:03:31;15.10;99.90
21282;DHT22;10800;53.096;18.328;2022-10-16T17:08:38;15.00;99.90
21282;DHT22;10800;53.096;18.328;2022-10-16T17:13:43;14.80;99.90
21282;DHT22;10800;53.096;18.328;2022-10-16T17:18:49;14.70;99.90
21282;DHT22;10800;53.096;18.328;2022-10-16T17:23:55;14.60;99.90
21282;DHT22;10800;53.096;18.328;2022-10-16T17:29:01;14.40;99.90
21282;DHT22;10800;53.096;18.328;2022-10-16T17:34:09;14.30;99.90
21282;DHT22;10800;53.096;18.328;2022-10-16T17:39:16;14.20;99.90
21282;DHT22;10800;53.096;18.328;2022-10-16T17:44:22;14.20;99.90
21282;DHT22;10800;53.096;18.328;2022-10-16T17:49:27;14.10;99.90
21282;DHT22;10800;53.096;18.328;2022-10-16T17:54:32;13.90;99.90
21282;DHT22;10800;53.096;18.328;2022-10-16T17:59:40;13.80;99.90
21282;DHT22;10800;53.096;18.328;2022-10-16T18:04:49;13.80;99.90
21282;DHT22;10800;53.096;18.328;2022-10-16T18:09:55;13.70;99.90
21282;DHT22;10800;53.096;18.328;2022-10-16T18:15:02;13.60;99.90
21282;DHT22;10800;53.096;18.328;2022-10-16T18:20:08;13.40;99.90
21282;DHT22;10800;53.096;18.328;2022-10-16T18:25:13;13.30;99.90
21282;DHT22;10800;53.096;18.328;2022-10-16T18:30:19;13.30;99.90
21282;DHT22;10800;53.096;18.328;2022-10-16T18:35:24;13.10;99.90
21282;DHT22;10800;53.096;18.328;2022-10-16T18:40:34;13.10;99.90
21282;DHT22;10800;53.096;18.328;2022-10-16T18:45:42;13.00;99.90
21282;DHT22;10800;53.096;18.328;2022-10-16T18:50:48;12.80;99.90
21282;DHT22;10800;53.096;18.328;2022-10-16T18:55:56;12.70;99.90
21282;DHT22;10800;53.096;18.328;2022-10-16T19:01:07;12.70;99.90
21282;DHT22;10800;53.096;18.328;2022-10-16T19:06:17;12.60;99.90
21282;DHT22;10800;53.096;18.328;2022-10-16T19:11:25;12.50;99.90
21282;DHT22;10800;53.096;18.328;2022-10-16T19:16:34;12.40;99.90
21282;DHT22;10800;53.096;18.328;2022-10-16T19:21:40;12.20;99.90
21282;DHT22;10800;53.096;18.328;2022-10-16T19:26:46;12.10;99.90
21282;DHT22;10800;53.096;18.328;2022-10-16T19:31:52;12.00;99.90
21282;DHT22;10800;53.096;18.328;2022-10-16T19:36:58;12.00;99.90
21282;DHT22;10800;53.096;18.328;2022-10-16T19:42:06;11.90;99.90
21282;DHT22;10800;53.096;18.328;2022-10-16T19:47:12;11.90;99.90
21282;DHT22;10800;53.096;18.328;2022-10-16T19:52:19;11.90;99.90
21282;DHT22;10800;53.096;18.328;2022-10-16T19:57:25;11.90;99.90
21282;DHT22;10800;53.096;18.328;2022-10-16T20:02:31;11.80;99.90
21282;DHT22;10800;53.096;18.328;2022-10-16T20:07:36;11.80;99.90
21282;DHT22;10800;53.096;18.328;2022-10-16T20:12:45;11.80;99.90
21282;DHT22;10800;53.096;18.328;2022-10-16T20:17:50;11.70;99.90
21282;DHT22;10800;53.096;18.328;2022-10-16T20:22:55;11.60;99.90
21282;DHT22;10800;53.096;18.328;2022-10-16T20:28:01;11.60;99.90
21282;DHT22;10800;53.096;18.328;2022-10-16T20:33:07;11.50;99.90
21282;DHT22;10800;53.096;18.328;2022-10-16T20:38:13;11.40;99.90
21282;DHT22;10800;53.096;18.328;2022-10-16T20:43:22;11.30;99.90
21282;DHT22;10800;53.096;18.328;2022-10-16T20:48:28;11.20;99.90
21282;DHT22;10800;53.096;18.328;2022-10-16T20:53:33;11.10;99.90
21282;DHT22;10800;53.096;18.328;2022-10-16T20:58:40;10.90;99.90
21282;DHT22;10800;53.096;18.328;2022-10-16T21:03:59;10.90;99.90
21282;DHT22;10800;53.096;18.328;2022-10-16T21:09:00;10.90;99.90
21282;DHT22;10800;53.096;18.328;2022-10-16T21:14:07;10.80;99.90
21282;DHT22;10800;53.096;18.328;2022-10-16T21:19:13;10.70;99.90
21282;DHT22;10800;53.096;18.328;2022-10-16T21:24:18;10.60;99.90
21282;DHT22;10800;53.096;18.328;2022-10-16T21:29:23;10.60;99.90
21282;DHT22;10800;53.096;18.328;2022-10-16T21:34:28;10.50;99.90
21282;DHT22;10800;53.096;18.328;2022-10-16T21:39:33;10.40;99.90
21282;DHT22;10800;53.096;18.328;2022-10-16T21:44:38;10.20;99.90
21282;DHT22;10800;53.096;18.328;2022-10-16T21:49:45;10.20;99.90
21282;DHT22;10800;53.096;18.328;2022-10-16T21:54:50;10.10;99.90
21282;DHT22;10800;53.096;18.328;2022-10-16T21:59:55;10.00;99.90
21282;DHT22;10800;53.096;18.328;2022-10-16T22:05:01;10.00;99.90
21282;DHT22;10800;53.096;18.328;2022-10-16T22:10:08;9.90;99.90
21282;DHT22;10800;53.096;18.328;2022-10-16T22:15:13;9.90;99.90
21282;DHT22;10800;53.096;18.328;2022-10-16T22:20:18;9.80;99.90
21282;DHT22;10800;53.096;18.328;2022-10-16T22:25:25;9.70;99.90
21282;DHT22;10800;53.096;18.328;2022-10-16T22:30:33;9.60;99.90
21282;DHT22;10800;53.096;18.328;2022-10-16T22:35:39;9.60;99.90
21282;DHT22;10800;53.096;18.328;2022-10-16T22:40:45;9.50;99.90
21282;DHT22;10800;53.096;18.328;2022-10-16T22:45:50;9.50;99.90
21282;DHT22;10800;53.096;18.328;2022-10-16T22:50:55;9.50;99.90
21282;DHT22;10800;53.096;18.328;2022-10-16T22:56:00;9.50;99.90
21282;DHT22;10800;53.096;18.328;2022-10-16T23:01:27;9.50;99.90
21282;DHT22;10800;53.096;18.328;2022-10-16T23:06:33;9.40;99.90
21282;DHT22;10800;53.096;18.328;2022-10-16T23:11:39;9.40;99.90
21282;DHT22;10800;53.096;18.328;2022-10-16T23:16:44;9.30;99.90
21282;DHT22;10800;53.096;18.328;2022-10-16T23:21:51;9.20;99.90
21282;DHT22;10800;53.096;18.328;2022-10-16T23:26:57;9.20;99.90
21282;DHT22;10800;53.096;18.328;2022-10-16T23:32:04;9.10;99.90
21282;DHT22;10800;53.096;18.328;2022-10-16T23:37:09;9.10;99.90
21282;DHT22;10800;53.096;18.328;2022-10-16T23:42:16;9.10;99.90
21282;DHT22;10800;53.096;18.328;2022-10-16T23:47:23;9.20;99.90
21282;DHT22;10800;53.096;18.328;2022-10-16T23:52:29;9.10;99.90
21282;DHT22;10800;53.096;18.328;2022-10-16T23:57:36;9.10;99.90
